Bladensburg, Iowa
Current Conditions -  °F | °C
As of 4:53 AM on Friday 31 Oct 2014 (Local Time) from KOTM Reporting Station
Scattered Clouds Scattered Clouds  
Wind Chill: 21°   Ceiling: Unl
Heat Index: 34°   Visibility: 10mi
Dew Point: 20°   Wind: 26mph
Humidity: 56%   Direction: 340°NNW
Pressure: 30.31"   Gusts: 35mph
Location:  41.0803°N, 92.3054°W
Report Text: KOTM 310953Z AUTO 34023G30KT 10SM SCT038 01/M07 A3031 RMK AO2 PK WND 34030/0945 SLP269 T00111067
Loading
Personal Weather Stations






























Interactive Weather Map
Tropical Storm Tracking
New forecast layout! Learn more

10-Day Weather Forecast

Advertisements
Track Severe Weather on mobile